Time;durP1;ratioP1;P1;durP2;ratioP2;P2;SDS_P1;SDS_P2;PMS_P1;PMS_P2;Temp;Humidity;BMP_temperature;BMP_pressure;BME280_temperature;BME280_humidity;BME280_pressure;Samples;Min_cycle;Max_cycle;Signal;HPM_P1;HPM_P2
2022/08/16 00:01:30;;;;;;;3.10;2.83;;;23.40;58.00;;;;;;7380502;19;20444;-45
2022/08/16 00:04:00;;;;;;;2.97;2.67;;;23.30;58.10;;;;;;7381312;19;21468;-45
2022/08/16 00:06:30;;;;;;;4.80;2.80;;;23.40;57.90;;;;;;7385848;19;20384;-45
2022/08/16 00:08:59;;;;;;;5.03;3.53;;;23.30;58.40;;;;;;7388538;19;20376;-44
2022/08/16 00:11:32;;;;;;;2.80;2.50;;;23.20;58.40;;;;;;7388021;19;21505;-46
2022/08/16 00:14:02;;;;;;;3.20;2.90;;;23.30;58.20;;;;;;7385471;19;20484;-45
2022/08/16 00:16:33;;;;;;;2.67;2.47;;;23.30;58.90;;;;;;7386395;19;20379;-45
2022/08/16 00:19:03;;;;;;;4.30;3.37;;;23.30;58.40;;;;;;7380144;19;20372;-45
2022/08/16 00:21:33;;;;;;;4.40;3.73;;;23.30;58.60;;;;;;7382707;19;20391;-45
2022/08/16 00:24:03;;;;;;;4.03;3.00;;;23.20;58.80;;;;;;7363659;19;20715;-44
2022/08/16 00:26:35;;;;;;;3.33;3.03;;;23.20;59.00;;;;;;7371018;19;20379;-45
2022/08/16 00:29:05;;;;;;;4.20;2.80;;;23.20;58.80;;;;;;7354722;19;20433;-45
2022/08/16 00:31:36;;;;;;;4.33;3.30;;;23.10;59.10;;;;;;7382052;19;20383;-45
2022/08/16 00:34:05;;;;;;;3.10;2.63;;;23.10;59.20;;;;;;7381707;19;21342;-45
2022/08/16 00:36:35;;;;;;;3.63;2.97;;;23.00;59.50;;;;;;7381829;19;20364;-45
2022/08/16 00:39:05;;;;;;;4.13;3.53;;;23.00;59.20;;;;;;7384183;19;20443;-45
2022/08/16 00:41:37;;;;;;;4.80;3.53;;;23.10;59.30;;;;;;7383078;19;21027;-45
2022/08/16 00:44:09;;;;;;;3.67;3.37;;;23.10;59.40;;;;;;7382416;19;20380;-45
2022/08/16 00:46:44;;;;;;;2.97;2.67;;;23.00;59.40;;;;;;7385679;19;20375;-45
2022/08/16 00:49:16;;;;;;;3.57;3.27;;;23.00;59.70;;;;;;7382120;19;20390;-45
2022/08/16 00:51:45;;;;;;;3.80;3.40;;;23.00;59.40;;;;;;7374768;19;20796;-45
2022/08/16 00:54:15;;;;;;;4.23;3.10;;;23.00;59.70;;;;;;7380913;19;20369;-46
2022/08/16 00:56:50;;;;;;;6.60;3.57;;;22.80;60.00;;;;;;7380700;19;20376;-45
2022/08/16 00:59:22;;;;;;;4.00;3.50;;;22.90;60.40;;;;;;7377551;19;21009;-48
2022/08/16 01:01:53;;;;;;;3.93;3.60;;;22.80;60.80;;;;;;7381803;19;20559;-46
2022/08/16 01:04:25;;;;;;;3.90;3.50;;;22.80;61.30;;;;;;7383720;19;20380;-46
2022/08/16 01:06:55;;;;;;;4.27;3.30;;;22.80;62.30;;;;;;7384667;19;20388;-45
2022/08/16 01:09:25;;;;;;;4.40;3.13;;;22.60;63.50;;;;;;7385776;19;20381;-46
2022/08/16 01:11:57;;;;;;;6.47;3.67;;;22.50;64.70;;;;;;7383662;19;20376;-45
2022/08/16 01:14:31;;;;;;;6.00;3.43;;;22.40;64.50;;;;;;7375052;19;21002;-45
2022/08/16 01:17:01;;;;;;;4.60;3.40;;;22.60;64.10;;;;;;7370986;19;20424;-45
2022/08/16 01:19:36;;;;;;;3.53;3.23;;;22.70;63.80;;;;;;7362161;19;20364;-46
2022/08/16 01:22:13;;;;;;;4.80;3.37;;;22.70;63.70;;;;;;7365431;19;20384;-46
2022/08/16 01:24:48;;;;;;;5.23;3.07;;;22.60;63.20;;;;;;7374207;19;20968;-46
2022/08/16 01:27:21;;;;;;;4.30;3.43;;;22.60;63.30;;;;;;7364731;19;20412;-45
2022/08/16 01:29:56;;;;;;;4.57;3.30;;;22.70;63.20;;;;;;7367040;19;20384;-45
2022/08/16 01:32:26;;;;;;;6.27;4.30;;;22.70;63.10;;;;;;7375508;19;20375;-45
2022/08/16 01:34:56;;;;;;;5.57;3.50;;;22.60;63.80;;;;;;7367551;19;20390;-45
2022/08/16 01:37:26;;;;;;;4.80;3.30;;;22.60;64.40;;;;;;7364765;19;21262;-46
2022/08/16 01:39:58;;;;;;;4.20;3.80;;;22.50;65.30;;;;;;7362525;19;20384;-46
2022/08/16 01:42:27;;;;;;;4.50;3.90;;;22.60;65.70;;;;;;7363781;19;20376;-47
2022/08/16 01:45:00;;;;;;;4.50;3.43;;;22.50;66.20;;;;;;7356364;19;20447;-46
2022/08/16 01:47:30;;;;;;;4.30;3.67;;;22.40;66.40;;;;;;7368057;19;21303;-46
2022/08/16 01:50:00;;;;;;;5.20;4.03;;;22.40;66.40;;;;;;7364413;19;21011;-45
2022/08/16 01:52:32;;;;;;;4.37;3.73;;;22.30;67.40;;;;;;7378114;19;20792;-45
2022/08/16 01:55:12;;;;;;;4.23;3.47;;;22.20;68.40;;;;;;7382857;19;20729;-45
2022/08/16 01:57:42;;;;;;;4.43;3.73;;;22.10;69.50;;;;;;7363196;19;20375;-45
2022/08/16 02:00:14;;;;;;;4.97;3.43;;;22.10;69.70;;;;;;7361069;19;20459;-46
2022/08/16 02:02:44;;;;;;;5.23;3.50;;;21.90;70.30;;;;;;7366812;19;20380;-46
2022/08/16 02:05:15;;;;;;;4.20;3.70;;;22.00;70.60;;;;;;7364177;19;20380;-45
2022/08/16 02:07:45;;;;;;;5.43;3.60;;;21.90;70.70;;;;;;7364879;19;20784;-45
2022/08/16 02:10:20;;;;;;;4.20;3.80;;;22.00;70.70;;;;;;7361972;19;20404;-46
2022/08/16 02:12:54;;;;;;;4.27;3.60;;;22.10;70.40;;;;;;7364896;19;20380;-45
2022/08/16 02:15:26;;;;;;;6.77;4.00;;;22.00;70.50;;;;;;7357400;19;20361;-45
2022/08/16 02:18:00;;;;;;;4.13;3.73;;;22.00;70.70;;;;;;7369706;19;20793;-45
2022/08/16 02:20:32;;;;;;;4.30;3.90;;;22.10;70.10;;;;;;7367904;19;20765;-46
2022/08/16 02:23:02;;;;;;;5.43;4.90;;;22.10;69.80;;;;;;7359702;19;21117;-45
2022/08/16 02:25:36;;;;;;;4.70;4.20;;;22.20;69.40;;;;;;7356614;19;20380;-45
2022/08/16 02:28:06;;;;;;;5.00;3.50;;;22.40;69.20;;;;;;7365709;19;20376;-45
2022/08/16 02:30:35;;;;;;;3.47;3.17;;;22.30;69.00;;;;;;7368890;19;20376;-45
2022/08/16 02:33:06;;;;;;;4.10;3.70;;;22.30;69.10;;;;;;7364314;19;20368;-45
2022/08/16 02:35:36;;;;;;;5.47;3.77;;;22.40;69.10;;;;;;7360522;19;21020;-45
2022/08/16 02:38:07;;;;;;;3.60;3.30;;;22.50;68.50;;;;;;7354498;19;20372;-45
2022/08/16 02:40:39;;;;;;;3.90;3.17;;;22.60;68.20;;;;;;7360461;19;20492;-46
2022/08/16 02:43:09;;;;;;;5.03;3.70;;;22.70;67.60;;;;;;7362082;19;20738;-45
2022/08/16 02:45:39;;;;;;;5.40;4.30;;;22.70;67.20;;;;;;7368057;19;20385;-45
2022/08/16 02:48:09;;;;;;;4.27;3.67;;;22.70;66.80;;;;;;7367280;19;20388;-45
2022/08/16 02:50:38;;;;;;;4.70;3.80;;;22.70;66.60;;;;;;7362149;19;20430;-45
2022/08/16 02:53:08;;;;;;;6.77;3.37;;;22.80;66.60;;;;;;7368040;19;20372;-45
2022/08/16 02:55:40;;;;;;;4.37;3.80;;;22.80;66.30;;;;;;7364805;19;20983;-46
2022/08/16 02:58:10;;;;;;;5.10;4.13;;;22.80;66.50;;;;;;7373026;19;20905;-46
2022/08/16 03:00:40;;;;;;;4.73;3.87;;;22.70;66.50;;;;;;7355262;19;20420;-45
2022/08/16 03:03:11;;;;;;;3.80;3.00;;;22.70;66.80;;;;;;7376860;19;20383;-45
2022/08/16 03:05:40;;;;;;;3.80;3.40;;;22.60;67.00;;;;;;7367602;19;20427;-45
2022/08/16 03:08:10;;;;;;;4.03;3.63;;;22.60;67.00;;;;;;7371311;19;20379;-45
2022/08/16 03:10:48;;;;;;;6.80;4.93;;;22.60;67.10;;;;;;7361557;19;20380;-45
2022/08/16 03:13:19;;;;;;;4.20;3.63;;;22.70;67.20;;;;;;7349195;19;20375;-45
2022/08/16 03:15:49;;;;;;;4.57;4.13;;;22.60;67.30;;;;;;7353591;19;20376;-45
2022/08/16 03:18:19;;;;;;;3.80;3.40;;;22.60;67.50;;;;;;7362984;19;20929;-45
2022/08/16 03:20:49;;;;;;;3.63;3.10;;;22.70;67.50;;;;;;7356297;19;20460;-46
2022/08/16 03:23:19;;;;;;;5.00;3.80;;;22.70;67.20;;;;;;7358165;19;20498;-45
2022/08/16 03:25:51;;;;;;;4.63;4.10;;;22.80;66.80;;;;;;7365023;19;20408;-45
2022/08/16 03:28:21;;;;;;;4.00;3.60;;;22.70;67.20;;;;;;7371915;19;20400;-45
2022/08/16 03:30:50;;;;;;;5.43;4.50;;;22.60;67.60;;;;;;7363800;19;20419;-46
2022/08/16 03:33:20;;;;;;;4.10;3.57;;;22.50;68.00;;;;;;7354565;19;20368;-46
2022/08/16 03:35:58;;;;;;;3.97;3.57;;;22.50;68.20;;;;;;7368234;19;21045;-46
2022/08/16 03:38:39;;;;;;;8.70;4.20;;;22.40;69.10;;;;;;7363053;19;20376;-46
2022/08/16 03:41:17;;;;;;;3.97;3.33;;;22.20;70.20;;;;;;7365108;19;20748;-46
2022/08/16 03:43:47;;;;;;;3.90;3.50;;;22.10;70.50;;;;;;7363763;19;20372;-46
2022/08/16 03:46:21;;;;;;;3.93;3.53;;;22.10;70.90;;;;;;7359279;19;20392;-46
2022/08/16 03:48:50;;;;;;;4.10;3.70;;;21.90;71.70;;;;;;7349481;19;20417;-46
2022/08/16 03:51:22;;;;;;;4.10;3.70;;;21.70;72.70;;;;;;7358541;19;20906;-46
2022/08/16 03:53:56;;;;;;;5.30;3.57;;;21.70;74.00;;;;;;7363907;19;20442;-46
2022/08/16 03:56:29;;;;;;;4.87;4.00;;;21.60;74.60;;;;;;7364894;19;20495;-46
2022/08/16 03:58:59;;;;;;;4.57;4.13;;;21.60;74.40;;;;;;7357037;19;20372;-46
2022/08/16 04:01:33;;;;;;;6.23;4.13;;;21.70;74.30;;;;;;7356933;19;21071;-46
2022/08/16 04:04:03;;;;;;;5.80;3.77;;;21.70;73.80;;;;;;7355948;19;20380;-46
2022/08/16 04:06:33;;;;;;;4.27;3.90;;;21.70;74.60;;;;;;7364495;19;20382;-46
2022/08/16 04:09:03;;;;;;;4.87;4.37;;;21.60;75.20;;;;;;7360993;19;21012;-47
2022/08/16 04:11:35;;;;;;;4.43;3.90;;;21.60;75.00;;;;;;7366352;19;20447;-46
2022/08/16 04:14:04;;;;;;;7.77;4.00;;;21.60;74.80;;;;;;7362571;19;20376;-46
2022/08/16 04:16:37;;;;;;;4.60;4.17;;;21.60;74.80;;;;;;7353572;19;20380;-46
2022/08/16 04:19:27;;;;;;;4.27;3.70;;;21.70;74.40;;;;;;7358776;19;20689;-46
2022/08/16 04:21:56;;;;;;;4.03;3.63;;;21.70;74.10;;;;;;7375935;19;20418;-46
2022/08/16 04:24:31;;;;;;;4.23;3.60;;;21.90;74.40;;;;;;7377991;19;20377;-46
2022/08/16 04:27:03;;;;;;;4.00;3.53;;;21.90;73.50;;;;;;7372401;19;21472;-46
2022/08/16 04:29:33;;;;;;;4.00;3.60;;;21.80;73.60;;;;;;7384846;19;20921;-45
2022/08/16 04:32:03;;;;;;;5.83;3.63;;;21.70;74.30;;;;;;7378038;19;20984;-45
2022/08/16 04:34:38;;;;;;;5.43;3.97;;;21.80;73.80;;;;;;7386679;19;20443;-45
2022/08/16 04:37:11;;;;;;;4.33;3.57;;;21.90;73.20;;;;;;7364305;19;20378;-46
2022/08/16 04:39:45;;;;;;;3.90;3.50;;;22.00;72.50;;;;;;7370358;19;21133;-45
2022/08/16 04:42:18;;;;;;;4.00;3.50;;;22.10;72.20;;;;;;7370123;19;20388;-45
2022/08/16 04:44:50;;;;;;;4.43;3.53;;;22.10;72.10;;;;;;7368117;19;20400;-45
2022/08/16 04:47:21;;;;;;;4.37;3.77;;;22.30;71.50;;;;;;7359995;19;20384;-45
2022/08/16 04:49:51;;;;;;;3.87;3.57;;;22.20;71.40;;;;;;7359966;19;20360;-45
2022/08/16 04:52:22;;;;;;;3.87;3.47;;;22.30;71.00;;;;;;7359892;19;20383;-45
2022/08/16 04:54:51;;;;;;;4.37;3.97;;;22.30;71.10;;;;;;7358292;19;20372;-46
2022/08/16 04:57:26;;;;;;;4.93;3.27;;;22.40;70.40;;;;;;7369447;19;20360;-50
2022/08/16 04:59:56;;;;;;;4.77;3.73;;;22.50;70.20;;;;;;7370723;19;20372;-45
2022/08/16 05:02:28;;;;;;;5.57;3.27;;;22.30;70.80;;;;;;7370598;19;20375;-45
2022/08/16 05:04:57;;;;;;;4.53;4.00;;;22.20;71.70;;;;;;7360917;19;20384;-45
2022/08/16 05:07:27;;;;;;;4.57;3.70;;;22.00;72.50;;;;;;7365139;19;20374;-45
2022/08/16 05:10:05;;;;;;;4.70;3.93;;;22.10;72.50;;;;;;7367477;19;20456;-46
2022/08/16 05:12:37;;;;;;;4.43;4.03;;;22.30;71.30;;;;;;7366454;19;20412;-45
2022/08/16 05:15:09;;;;;;;7.27;5.67;;;22.50;70.30;;;;;;7365965;19;20392;-45
2022/08/16 05:17:40;;;;;;;6.63;4.30;;;22.70;69.90;;;;;;7371350;19;20378;-45
2022/08/16 05:20:15;;;;;;;5.70;4.13;;;22.80;69.10;;;;;;7370743;19;20380;-45
2022/08/16 05:22:45;;;;;;;5.87;4.53;;;22.80;68.70;;;;;;7362532;19;20413;-46
2022/08/16 05:25:18;;;;;;;4.47;4.07;;;22.90;68.50;;;;;;7369069;19;20431;-45
2022/08/16 05:27:58;;;;;;;5.47;4.20;;;22.80;68.60;;;;;;7380064;19;20936;-45
2022/08/16 05:30:27;;;;;;;4.53;3.40;;;22.70;69.30;;;;;;7385191;19;20371;-46
2022/08/16 05:32:57;;;;;;;5.03;3.90;;;22.50;70.00;;;;;;7381669;19;20515;-45
2022/08/16 05:35:26;;;;;;;4.37;3.97;;;22.50;70.30;;;;;;7377664;19;20384;-46
2022/08/16 05:38:10;;;;;;;4.40;3.73;;;22.40;70.80;;;;;;7379846;19;20409;-46
2022/08/16 05:40:40;;;;;;;4.80;4.27;;;22.60;70.50;;;;;;7371134;19;20376;-46
2022/08/16 05:43:13;;;;;;;5.77;4.17;;;22.70;69.50;;;;;;7378978;19;20380;-46
2022/08/16 05:45:44;;;;;;;3.60;3.30;;;22.80;69.20;;;;;;7386117;19;20364;-47
2022/08/16 05:48:13;;;;;;;6.47;3.57;;;22.90;68.60;;;;;;7385806;19;20958;-46
2022/08/16 05:50:59;;;;;;;3.77;3.37;;;23.00;68.10;;;;;;7384601;19;20404;-46
2022/08/16 05:53:28;;;;;;;6.87;3.70;;;23.10;67.50;;;;;;7386726;19;20368;-46
2022/08/16 05:56:11;;;;;;;4.90;3.93;;;23.30;67.00;;;;;;7385637;19;20719;-46
2022/08/16 05:58:46;;;;;;;4.20;3.73;;;23.50;66.20;;;;;;7383330;19;20398;-47
2022/08/16 06:01:18;;;;;;;7.47;5.00;;;23.60;65.40;;;;;;7384532;19;20438;-46
2022/08/16 06:03:51;;;;;;;4.47;4.07;;;23.60;65.00;;;;;;7384325;19;20388;-46
2022/08/16 06:06:32;;;;;;;5.03;4.53;;;23.60;64.80;;;;;;7386813;19;20384;-46
2022/08/16 06:09:04;;;;;;;4.60;3.70;;;23.70;64.60;;;;;;7385204;19;20376;-47
2022/08/16 06:11:34;;;;;;;4.60;4.20;;;23.70;64.40;;;;;;7379795;19;20455;-45
2022/08/16 06:14:08;;;;;;;4.07;3.67;;;23.70;64.40;;;;;;7382849;19;20380;-46
2022/08/16 06:16:41;;;;;;;5.43;3.87;;;23.70;64.10;;;;;;7374145;19;20396;-46
2022/08/16 06:19:11;;;;;;;4.37;3.80;;;23.70;64.10;;;;;;7376823;19;20376;-45
2022/08/16 06:21:48;;;;;;;7.83;4.30;;;23.80;64.30;;;;;;7377268;19;20376;-45
2022/08/16 06:24:17;;;;;;;5.33;3.90;;;23.80;64.00;;;;;;7382417;19;20388;-46
2022/08/16 06:26:47;;;;;;;4.33;3.80;;;23.80;64.10;;;;;;7375027;19;20769;-46
2022/08/16 06:29:19;;;;;;;5.73;4.00;;;23.80;64.00;;;;;;7379716;19;20847;-46
2022/08/16 06:31:49;;;;;;;4.80;3.67;;;23.80;64.20;;;;;;7372886;19;20444;-46
2022/08/16 06:34:18;;;;;;;5.50;4.33;;;23.80;64.50;;;;;;7372125;19;20416;-46
2022/08/16 06:36:49;;;;;;;6.90;5.80;;;23.80;64.30;;;;;;7374499;19;20456;-46
2022/08/16 06:39:24;;;;;;;6.33;4.23;;;23.90;64.70;;;;;;7377430;19;20384;-45
2022/08/16 06:42:00;;;;;;;5.27;3.83;;;24.10;63.20;;;;;;7379329;19;20376;-47
2022/08/16 06:44:55;;;;;;;4.80;4.40;;;24.30;62.70;;;;;;7370543;19;20495;-47
2022/08/16 06:47:50;;;;;;;4.97;4.50;;;24.40;61.90;;;;;;7376137;19;20419;-47
2022/08/16 06:50:20;;;;;;;4.97;3.83;;;24.40;61.30;;;;;;7378794;19;20466;-47
2022/08/16 06:52:51;;;;;;;4.17;3.77;;;24.40;61.80;;;;;;7379010;19;20395;-46
2022/08/16 06:55:21;;;;;;;6.57;4.60;;;24.50;61.00;;;;;;7375955;19;20468;-47
2022/08/16 06:57:56;;;;;;;8.00;4.60;;;24.70;61.20;;;;;;7376437;19;20423;-46
2022/08/16 07:00:29;;;;;;;6.40;4.07;;;24.80;60.30;;;;;;7377715;19;20455;-47
2022/08/16 07:03:06;;;;;;;3.57;3.10;;;25.00;60.00;;;;;;7367470;19;20368;-47
2022/08/16 07:05:36;;;;;;;5.53;3.70;;;25.00;59.60;;;;;;7377816;19;20391;-46
2022/08/16 07:08:13;;;;;;;8.60;4.10;;;25.20;59.40;;;;;;7373186;19;20399;-47
2022/08/16 07:10:45;;;;;;;4.30;3.90;;;25.30;58.80;;;;;;7376966;19;20399;-47
2022/08/16 07:13:16;;;;;;;4.43;4.03;;;25.50;58.20;;;;;;7376175;19;20373;-47
2022/08/16 07:15:50;;;;;;;4.17;3.77;;;25.60;58.10;;;;;;7377086;19;20376;-47
2022/08/16 07:18:22;;;;;;;5.33;4.10;;;25.60;57.90;;;;;;7377729;19;20464;-47
2022/08/16 07:20:52;;;;;;;4.80;4.30;;;25.50;58.00;;;;;;7376760;19;20399;-47
2022/08/16 07:23:23;;;;;;;6.30;3.93;;;25.30;58.50;;;;;;7370604;19;20413;-47
2022/08/16 07:25:57;;;;;;;4.67;3.80;;;25.60;58.30;;;;;;7375956;19;20409;-46
2022/08/16 07:28:29;;;;;;;4.33;3.87;;;25.80;57.50;;;;;;7375176;19;20719;-46
2022/08/16 07:31:02;;;;;;;4.30;3.90;;;25.90;57.30;;;;;;7374479;19;20390;-47
2022/08/16 07:33:43;;;;;;;4.03;3.63;;;26.10;56.80;;;;;;7378541;19;20372;-47
2022/08/16 07:36:14;;;;;;;7.00;4.43;;;26.30;56.40;;;;;;7367695;19;20368;-47
2022/08/16 07:38:48;;;;;;;4.87;4.47;;;26.50;55.60;;;;;;7375924;19;20745;-47
2022/08/16 07:41:18;;;;;;;4.60;4.17;;;26.70;55.00;;;;;;7376083;19;20384;-47
2022/08/16 07:43:51;;;;;;;3.93;3.63;;;26.90;54.70;;;;;;7375242;19;20380;-47
2022/08/16 07:46:27;;;;;;;5.17;4.23;;;27.00;54.30;;;;;;7370950;19;20380;-47
2022/08/16 07:48:57;;;;;;;5.17;3.83;;;27.00;54.20;;;;;;7377730;19;20375;-47
2022/08/16 07:51:30;;;;;;;5.53;4.40;;;27.00;54.00;;;;;;7375772;19;20376;-47
2022/08/16 07:54:01;;;;;;;4.33;3.87;;;27.10;53.30;;;;;;7371891;19;20384;-47
2022/08/16 07:56:30;;;;;;;5.47;4.30;;;27.10;53.20;;;;;;7371618;19;20380;-47
2022/08/16 07:59:00;;;;;;;5.00;4.10;;;27.00;53.20;;;;;;7377757;19;20384;-47
2022/08/16 08:01:33;;;;;;;5.37;4.87;;;27.30;53.00;;;;;;7365390;19;20435;-47
2022/08/16 08:04:03;;;;;;;4.90;4.53;;;27.40;51.50;;;;;;7378847;19;20396;-47
2022/08/16 08:06:38;;;;;;;4.60;4.10;;;27.20;52.20;;;;;;7383718;19;21124;-47
2022/08/16 08:09:16;;;;;;;5.90;4.60;;;27.40;52.00;;;;;;7384122;19;20367;-47
2022/08/16 08:11:49;;;;;;;5.87;4.60;;;27.50;51.60;;;;;;7386053;19;20730;-47
2022/08/16 08:14:20;;;;;;;6.20;5.50;;;27.50;51.60;;;;;;7383132;19;20419;-47
2022/08/16 08:16:53;;;;;;;5.63;3.90;;;27.70;51.70;;;;;;7384475;19;20387;-47
2022/08/16 08:19:30;;;;;;;5.80;5.00;;;28.00;50.60;;;;;;7382034;19;20392;-47
2022/08/16 08:22:00;;;;;;;7.17;4.50;;;28.50;50.50;;;;;;7382065;19;20380;-47
2022/08/16 08:24:38;;;;;;;6.00;4.00;;;28.90;50.50;;;;;;7384246;19;20738;-47
2022/08/16 08:27:10;;;;;;;5.63;3.73;;;29.20;50.60;;;;;;7387454;19;20383;-47
2022/08/16 08:29:39;;;;;;;5.60;4.17;;;29.30;50.20;;;;;;7383767;19;20372;-47
2022/08/16 08:32:12;;;;;;;4.77;4.00;;;29.30;49.90;;;;;;7381272;19;20794;-47
2022/08/16 08:34:42;;;;;;;5.00;4.50;;;29.20;49.90;;;;;;7387150;19;20380;-47
2022/08/16 08:37:12;;;;;;;5.97;4.30;;;29.10;50.00;;;;;;7386056;19;20484;-47
2022/08/16 08:39:44;;;;;;;6.87;4.53;;;28.90;50.50;;;;;;7385712;19;20388;-47
2022/08/16 08:42:14;;;;;;;4.87;4.30;;;28.70;50.80;;;;;;7384712;19;20374;-47
2022/08/16 08:44:44;;;;;;;5.00;4.20;;;28.70;50.90;;;;;;7385735;19;20383;-47
2022/08/16 08:47:19;;;;;;;5.20;4.70;;;28.70;51.00;;;;;;7384000;19;20380;-47
2022/08/16 08:49:49;;;;;;;5.83;4.93;;;28.80;50.70;;;;;;7387826;19;20463;-46
2022/08/16 08:52:20;;;;;;;4.73;4.20;;;28.80;50.40;;;;;;7383748;19;20418;-46
2022/08/16 08:54:49;;;;;;;5.47;4.47;;;28.70;51.50;;;;;;7387828;19;20412;-47
2022/08/16 08:57:21;;;;;;;7.17;4.73;;;28.80;50.80;;;;;;7383916;19;20483;-46
2022/08/16 09:00:13;;;;;;;5.50;4.60;;;29.00;50.40;;;;;;7382866;19;20446;-47
2022/08/16 09:02:46;;;;;;;6.50;4.80;;;28.80;49.50;;;;;;7384693;19;20376;-46
2022/08/16 09:05:17;;;;;;;6.03;4.60;;;28.70;50.20;;;;;;7385698;19;20996;-46
2022/08/16 09:07:48;;;;;;;5.10;4.67;;;28.30;50.80;;;;;;7382984;19;20425;-46
2022/08/16 09:10:17;;;;;;;5.50;4.40;;;28.40;51.40;;;;;;7386419;19;20387;-46
2022/08/16 09:12:48;;;;;;;6.03;4.87;;;29.00;51.00;;;;;;7382534;19;21117;-46
2022/08/16 09:15:25;;;;;;;5.50;4.40;;;;;;;;;;7382769;19;20400;-46
2022/08/16 09:17:57;;;;;;;3.67;3.37;;;30.40;47.60;;;;;;7385621;19;20387;-46
2022/08/16 09:20:31;;;;;;;6.77;5.03;;;30.50;47.20;;;;;;7382929;19;21077;-47
2022/08/16 09:23:02;;;;;;;5.40;4.90;;;30.30;46.90;;;;;;7383928;19;20379;-46
2022/08/16 09:25:40;;;;;;;5.77;5.20;;;29.90;47.00;;;;;;7384600;19;20371;-47
2022/08/16 09:28:12;;;;;;;5.90;4.33;;;29.50;47.90;;;;;;7384783;19;20380;-47
2022/08/16 09:30:52;;;;;;;7.00;4.70;;;29.30;48.80;;;;;;7385488;19;20375;-47
2022/08/16 09:33:24;;;;;;;6.33;4.63;;;29.20;48.90;;;;;;7384391;19;20777;-46
2022/08/16 09:35:54;;;;;;;7.83;5.83;;;29.70;49.00;;;;;;7384979;19;20769;-46
2022/08/16 09:38:26;;;;;;;4.77;4.37;;;30.30;47.60;;;;;;7383695;19;20800;-46
2022/08/16 09:40:56;;;;;;;5.17;4.67;;;31.10;46.30;;;;;;7385163;19;20372;-47
2022/08/16 09:43:26;;;;;;;4.77;3.93;;;32.10;44.50;;;;;;7383572;19;20380;-47
2022/08/16 09:45:58;;;;;;;5.30;4.10;;;32.80;43.80;;;;;;7386578;19;20376;-47
2022/08/16 09:48:31;;;;;;;5.90;4.57;;;33.30;41.20;;;;;;7385368;19;20369;-47
2022/08/16 09:51:00;;;;;;;5.90;4.03;;;33.70;41.40;;;;;;7385924;19;20437;-47
2022/08/16 09:53:31;;;;;;;4.37;4.00;;;34.40;40.20;;;;;;7384213;19;20489;-47
2022/08/16 09:56:01;;;;;;;5.30;4.57;;;34.90;39.40;;;;;;7376791;19;20951;-47
2022/08/16 09:58:32;;;;;;;4.77;4.30;;;35.60;37.10;;;;;;7384466;19;20390;-47
2022/08/16 10:01:08;;;;;;;6.13;4.30;;;34.80;37.40;;;;;;7381131;19;20981;-47
2022/08/16 10:03:42;;;;;;;5.90;4.60;;;33.80;39.20;;;;;;7384272;19;20423;-47
2022/08/16 10:06:11;;;;;;;4.70;4.30;;;33.20;40.20;;;;;;7384228;19;20393;-47
2022/08/16 10:08:41;;;;;;;5.43;4.10;;;32.60;41.20;;;;;;7383652;19;20405;-47
2022/08/16 10:13:55;;;;;;;7.13;4.83;;;31.70;42.40;;;;;;7385052;19;20411;-46
2022/08/16 10:16:26;;;;;;;5.47;4.87;;;31.10;43.20;;;;;;7383439;19;20364;-46
2022/08/16 10:18:58;;;;;;;6.10;5.33;;;30.70;43.90;;;;;;7385281;19;20397;-47
2022/08/16 10:21:30;;;;;;;7.30;4.80;;;30.40;44.70;;;;;;7386283;19;20395;-47
2022/08/16 10:24:01;;;;;;;7.17;4.97;;;30.10;45.30;;;;;;7381955;19;20360;-47
2022/08/16 10:26:32;;;;;;;5.60;5.00;;;29.80;45.70;;;;;;7383436;19;20380;-47
2022/08/16 10:29:02;;;;;;;5.40;4.90;;;29.80;45.80;;;;;;7380794;19;20963;-47
2022/08/16 10:31:33;;;;;;;5.40;4.80;;;29.90;45.70;;;;;;7384504;19;20425;-46
2022/08/16 10:34:06;;;;;;;6.40;5.23;;;29.90;45.70;;;;;;7381188;19;20383;-47
2022/08/16 10:36:35;;;;;;;5.40;4.60;;;29.90;45.60;;;;;;7383051;19;20374;-47
2022/08/16 10:39:06;;;;;;;5.77;5.00;;;30.00;45.50;;;;;;7382480;19;20387;-47
2022/08/16 10:41:36;;;;;;;6.77;6.00;;;29.90;45.60;;;;;;7384511;19;20384;-47
2022/08/16 10:44:05;;;;;;;5.87;4.30;;;30.20;45.50;;;;;;7385406;19;20974;-47
2022/08/16 10:46:35;;;;;;;6.23;5.10;;;30.60;44.70;;;;;;7381279;19;20384;-47
2022/08/16 10:49:07;;;;;;;5.47;4.97;;;31.30;43.20;;;;;;7380746;19;20368;-47
2022/08/16 10:51:42;;;;;;;5.97;5.23;;;31.90;42.20;;;;;;7384262;19;20379;-47
2022/08/16 10:54:11;;;;;;;5.33;4.83;;;32.10;41.60;;;;;;7380000;19;20368;-47
2022/08/16 10:56:42;;;;;;;5.53;4.50;;;32.00;42.00;;;;;;7382693;19;20370;-46
2022/08/16 10:59:14;;;;;;;5.27;4.57;;;31.50;42.20;;;;;;7384092;19;20894;-47
2022/08/16 11:01:44;;;;;;;5.63;4.23;;;31.40;42.40;;;;;;7381727;19;20440;-47
2022/08/16 11:04:17;;;;;;;5.30;4.60;;;31.10;43.30;;;;;;7380112;19;20384;-47
2022/08/16 11:06:47;;;;;;;4.83;4.23;;;30.90;43.40;;;;;;7382687;19;20429;-47
2022/08/16 11:09:18;;;;;;;4.40;4.00;;;31.50;43.80;;;;;;7382790;19;20375;-47
2022/08/16 11:11:50;;;;;;;4.40;3.90;;;33.30;40.80;;;;;;7379303;19;20412;-47
2022/08/16 11:14:20;;;;;;;4.60;4.20;;;35.50;36.90;;;;;;7380175;19;21033;-48
2022/08/16 11:16:49;;;;;;;4.27;3.70;;;37.40;34.00;;;;;;7384235;19;20380;-48
2022/08/16 11:19:21;;;;;;;7.63;4.73;;;38.80;32.10;;;;;;7377246;19;20821;-48
2022/08/16 11:21:52;;;;;;;4.17;3.87;;;40.00;30.50;;;;;;7382757;19;20372;-48
2022/08/16 11:24:25;;;;;;;4.87;3.80;;;40.60;29.20;;;;;;7380474;19;20360;-48
2022/08/16 11:26:54;;;;;;;4.43;3.93;;;40.90;29.30;;;;;;7382883;19;20800;-49
2022/08/16 11:29:24;;;;;;;4.50;3.87;;;41.20;29.20;;;;;;7383805;19;20410;-48
2022/08/16 11:31:53;;;;;;;4.10;3.70;;;41.90;27.90;;;;;;7382632;19;20384;-48
2022/08/16 11:34:28;;;;;;;3.93;3.53;;;40.60;28.80;;;;;;7380185;19;20391;-48
2022/08/16 11:36:57;;;;;;;4.03;3.30;;;40.60;29.20;;;;;;7383240;19;20419;-48
2022/08/16 11:39:30;;;;;;;4.40;4.00;;;40.40;28.90;;;;;;7382135;19;20379;-48
2022/08/16 11:42:00;;;;;;;5.07;3.93;;;39.00;29.70;;;;;;7379199;19;20707;-48
2022/08/16 11:44:29;;;;;;;3.67;3.33;;;38.00;30.90;;;;;;7379807;19;20375;-48
2022/08/16 11:46:59;;;;;;;4.20;3.80;;;37.50;32.40;;;;;;7380863;19;20384;-48
2022/08/16 11:49:31;;;;;;;4.50;3.80;;;38.50;31.30;;;;;;7379882;19;20373;-48
2022/08/16 11:52:00;;;;;;;5.80;3.40;;;40.20;29.30;;;;;;7382378;19;20423;-48
2022/08/16 11:54:30;;;;;;;3.80;3.50;;;40.20;29.00;;;;;;7377166;19;20430;-48
2022/08/16 11:57:01;;;;;;;4.80;4.00;;;39.20;29.80;;;;;;7384952;19;20372;-48
2022/08/16 11:59:32;;;;;;;3.97;3.67;;;38.20;31.00;;;;;;7380572;19;20372;-48
2022/08/16 12:02:02;;;;;;;3.90;3.50;;;38.10;31.50;;;;;;7380799;19;20477;-49
2022/08/16 12:04:34;;;;;;;3.83;3.47;;;39.70;29.80;;;;;;7378637;19;20960;-47
2022/08/16 12:07:09;;;;;;;5.50;3.80;;;39.90;28.90;;;;;;7379335;19;20475;-49
2022/08/16 12:09:39;;;;;;;4.30;3.23;;;39.30;30.00;;;;;;7383211;19;20376;-49
2022/08/16 12:12:09;;;;;;;4.00;3.70;;;39.90;29.50;;;;;;7383264;19;20380;-49
2022/08/16 12:14:41;;;;;;;4.10;3.60;;;40.90;28.30;;;;;;7378871;19;20372;-49
2022/08/16 12:17:13;;;;;;;3.70;3.00;;;41.10;27.90;;;;;;7381268;19;20922;-49
2022/08/16 12:19:47;;;;;;;4.50;4.10;;;41.60;27.70;;;;;;7381984;19;20812;-49
2022/08/16 12:22:17;;;;;;;4.17;3.00;;;42.20;27.20;;;;;;7378802;19;20476;-50
2022/08/16 12:24:47;;;;;;;3.87;3.30;;;43.20;26.40;;;;;;7382581;19;20391;-49
2022/08/16 12:27:16;;;;;;;3.57;3.27;;;43.40;26.10;;;;;;7381484;19;20481;-50
2022/08/16 12:30:05;;;;;;;4.40;3.77;;;44.10;25.50;;;;;;7380889;19;21059;-47
2022/08/16 12:32:35;;;;;;;2.90;2.70;;;44.90;25.50;;;;;;7381156;19;20388;-47
2022/08/16 12:35:08;;;;;;;3.40;3.10;;;44.50;24.70;;;;;;7375639;19;20387;-47
2022/08/16 12:37:38;;;;;;;4.10;3.70;;;43.30;25.60;;;;;;7379347;19;20961;-47
2022/08/16 12:40:11;;;;;;;5.87;3.40;;;42.00;26.90;;;;;;7380539;19;20391;-48
2022/08/16 12:42:40;;;;;;;3.07;2.87;;;41.90;27.30;;;;;;7381558;19;20394;-49
2022/08/16 12:45:14;;;;;;;3.90;3.50;;;42.70;26.50;;;;;;7382063;19;20372;-49
2022/08/16 12:50:31;;;;;;;3.80;3.50;;;43.20;25.70;;;;;;7389725;19;20404;-49
2022/08/16 12:53:01;;;;;;;3.70;2.80;;;43.50;25.50;;;;;;7385884;19;21032;-49
2022/08/16 12:55:31;;;;;;;3.80;3.50;;;43.80;25.50;;;;;;7385301;19;20391;-47
2022/08/16 12:58:01;;;;;;;4.60;3.20;;;44.70;24.90;;;;;;7386475;19;20360;-49
2022/08/16 13:00:32;;;;;;;3.97;3.30;;;44.70;24.50;;;;;;7386898;19;20432;-49
2022/08/16 13:03:03;;;;;;;3.33;3.10;;;43.60;25.00;;;;;;7386448;19;20382;-49
2022/08/16 13:05:40;;;;;;;3.37;3.10;;;42.20;26.50;;;;;;7383523;19;20741;-49
2022/08/16 13:08:21;;;;;;;4.97;3.33;;;42.70;26.00;;;;;;7386231;19;20412;-49
2022/08/16 13:10:53;;;;;;;3.43;3.00;;;42.90;25.30;;;;;;7387357;19;20380;-49
2022/08/16 13:13:27;;;;;;;3.03;2.80;;;42.70;25.20;;;;;;7385690;19;20376;-49
2022/08/16 13:16:00;;;;;;;4.03;3.30;;;43.10;25.40;;;;;;7382877;19;20368;-49
2022/08/16 13:18:33;;;;;;;3.50;3.20;;;42.60;25.80;;;;;;7361774;19;20439;-49